Norridgewock, Maine
Current Conditions -  °F | °C
As of 11:35 AM on Sunday 25 Jan 2015 (Local Time) from KWVL Reporting Station
Clear Clear  
Wind Chill: 11°   Ceiling: Unl
Heat Index: 25°   Visibility: 10mi
Dew Point:   Wind: 20mph
Humidity: 40%   Direction: 300°WNW
Pressure: 29.49"   Gusts: NA
Location:  44.71°N, 69.79°W
Report Text: KWVL 251635Z 30017KT 10SM CLR M04/M16 A2949 RMK AO1
Loading
Personal Weather Stations






























Interactive Weather Map New forecast layout! Learn more

10-Day Weather Forecast

Advertisements
Track Severe Weather on mobile